createdAt,value
2022-12-11T00:00:51.588Z,-0.60
2022-12-11T00:03:19.310Z,-0.60
2022-12-11T00:05:46.558Z,-0.60
2022-12-11T00:08:14.124Z,-0.60
2022-12-11T00:10:49.487Z,-0.60
2022-12-11T00:13:16.724Z,-0.60
2022-12-11T00:15:43.887Z,-0.60
2022-12-11T00:18:14.161Z,-0.60
2022-12-11T00:20:41.711Z,-0.60
2022-12-11T00:23:08.899Z,-0.60
2022-12-11T00:25:36.019Z,-0.60
2022-12-11T00:28:03.180Z,-0.50
2022-12-11T00:30:30.134Z,-0.50
2022-12-11T00:35:46.771Z,-0.60
2022-12-11T00:38:19.573Z,-0.50
2022-12-11T00:40:47.393Z,-0.50
2022-12-11T00:43:15.075Z,-0.50
2022-12-11T00:45:45.313Z,-0.50
2022-12-11T00:48:13.420Z,-0.40
2022-12-11T00:50:41.041Z,-0.40
2022-12-11T00:53:08.406Z,-0.40
2022-12-11T00:55:40.865Z,-0.40
2022-12-11T00:58:09.207Z,-0.40
2022-12-11T01:00:36.502Z,-0.40
2022-12-11T01:03:04.257Z,-0.40
2022-12-11T01:05:31.964Z,-0.40
2022-12-11T01:07:59.517Z,-0.40
2022-12-11T01:10:27.743Z,-0.40
2022-12-11T01:13:04.440Z,-0.40
2022-12-11T01:15:38.666Z,-0.30
2022-12-11T01:18:08.695Z,-0.30
2022-12-11T01:20:37.833Z,-0.30
2022-12-11T01:23:05.008Z,-0.30
2022-12-11T01:25:33.375Z,-0.30
2022-12-11T01:28:00.548Z,-0.30
2022-12-11T01:30:27.747Z,-0.30
2022-12-11T01:32:54.876Z,-0.30
2022-12-11T01:35:22.291Z,-0.30
2022-12-11T01:37:49.572Z,-0.30
2022-12-11T01:40:19.824Z,-0.30
2022-12-11T01:42:47.093Z,-0.30
2022-12-11T01:45:46.593Z,-0.30
2022-12-11T01:48:23.807Z,-0.20
2022-12-11T01:50:55.815Z,-0.20
2022-12-11T01:53:37.909Z,-0.20
2022-12-11T01:56:06.566Z,-0.20
2022-12-11T01:58:40.101Z,-0.20
2022-12-11T02:01:08.284Z,-0.20
2022-12-11T02:03:35.444Z,-0.20
2022-12-11T02:06:03.151Z,-0.20
2022-12-11T02:08:30.311Z,-0.20
2022-12-11T02:11:21.832Z,-0.10
2022-12-11T02:14:07.690Z,-0.20
2022-12-11T02:16:59.962Z,-0.10
2022-12-11T02:19:51.745Z,-0.10
2022-12-11T02:22:35.939Z,-0.10
2022-12-11T02:26:13.758Z,-0.10
2022-12-11T02:29:02.186Z,-0.10
2022-12-11T02:31:51.693Z,-0.10
2022-12-11T02:34:25.399Z,-0.10
2022-12-11T02:36:59.232Z,-0.10
2022-12-11T02:39:27.917Z,-0.10
2022-12-11T02:41:56.428Z,0.00
2022-12-11T02:44:29.646Z,0.00
2022-12-11T02:46:58.487Z,-0.10
2022-12-11T02:49:27.981Z,0.00
2022-12-11T02:51:57.073Z,0.00
2022-12-11T02:54:35.218Z,0.00
2022-12-11T02:57:23.781Z,0.00
2022-12-11T02:59:50.988Z,0.00
2022-12-11T03:02:18.891Z,0.00
2022-12-11T03:04:47.623Z,0.00
2022-12-11T03:07:23.359Z,0.00
2022-12-11T03:09:51.576Z,0.00
2022-12-11T03:12:30.105Z,0.00
2022-12-11T03:15:01.652Z,0.00
2022-12-11T03:18:30.228Z,0.00
2022-12-11T03:21:24.481Z,0.00
2022-12-11T03:24:19.720Z,0.00
2022-12-11T03:26:56.640Z,0.10
2022-12-11T03:29:31.697Z,0.00
2022-12-11T03:32:09.387Z,0.10
2022-12-11T03:34:54.557Z,0.10
2022-12-11T03:37:29.186Z,0.10
2022-12-11T03:40:03.260Z,0.10
2022-12-11T03:42:31.669Z,0.10
2022-12-11T03:45:00.314Z,0.10
2022-12-11T03:47:28.714Z,0.10
2022-12-11T03:49:56.601Z,0.10
2022-12-11T03:52:27.303Z,0.10
2022-12-11T03:54:58.599Z,0.10
2022-12-11T03:57:32.243Z,0.10
2022-12-11T03:59:59.727Z,0.10
2022-12-11T04:02:26.891Z,0.10
2022-12-11T04:04:53.999Z,0.10
2022-12-11T04:07:21.093Z,0.10
2022-12-11T04:09:48.199Z,0.10
2022-12-11T04:12:15.304Z,0.10
2022-12-11T04:15:00.863Z,0.10
2022-12-11T04:17:54.826Z,0.10
2022-12-11T04:20:40.817Z,0.10
2022-12-11T04:23:33.119Z,0.10
2022-12-11T04:26:10.590Z,0.10
2022-12-11T04:28:40.030Z,0.10
2022-12-11T04:31:11.635Z,0.10
2022-12-11T04:33:38.827Z,0.10
2022-12-11T04:36:06.539Z,0.10
2022-12-11T04:38:33.740Z,0.10
2022-12-11T04:41:04.718Z,0.10
2022-12-11T04:43:32.127Z,0.10
2022-12-11T04:46:11.151Z,0.10
2022-12-11T04:48:39.250Z,0.10
2022-12-11T04:51:06.625Z,0.20
2022-12-11T04:53:34.652Z,0.20
2022-12-11T04:56:01.706Z,0.20
2022-12-11T04:58:28.778Z,0.20
2022-12-11T05:00:55.771Z,0.20
2022-12-11T05:03:24.093Z,0.20
2022-12-11T05:05:53.552Z,0.20
2022-12-11T05:08:21.757Z,0.20
2022-12-11T05:11:02.843Z,0.20
2022-12-11T05:13:30.671Z,0.20
2022-12-11T05:15:58.355Z,0.20
2022-12-11T05:18:26.173Z,0.20
2022-12-11T05:21:02.031Z,0.20
2022-12-11T05:23:30.019Z,0.20
2022-12-11T05:26:00.273Z,0.20
2022-12-11T05:28:30.423Z,0.20
2022-12-11T05:31:00.250Z,0.20
2022-12-11T05:33:29.407Z,0.20
2022-12-11T05:35:57.249Z,0.20
2022-12-11T05:38:24.578Z,0.20
2022-12-11T05:41:05.902Z,0.20
2022-12-11T05:43:36.942Z,0.20
2022-12-11T05:46:20.647Z,0.20
2022-12-11T05:48:50.473Z,0.30
2022-12-11T05:51:19.180Z,0.30
2022-12-11T05:53:49.461Z,0.20
2022-12-11T05:56:20.375Z,0.20
2022-12-11T05:58:49.123Z,0.20
2022-12-11T06:01:28.402Z,0.20
2022-12-11T06:03:57.632Z,0.20
2022-12-11T06:06:26.328Z,0.20
2022-12-11T06:08:56.276Z,0.20
2022-12-11T06:11:25.389Z,0.20
2022-12-11T06:13:53.245Z,0.20
2022-12-11T06:16:21.689Z,0.20
2022-12-11T06:18:49.095Z,0.20
2022-12-11T06:21:42.641Z,0.20
2022-12-11T06:24:11.838Z,0.20
2022-12-11T06:26:39.103Z,0.30
2022-12-11T06:29:09.206Z,0.20
2022-12-11T06:31:40.056Z,0.30
2022-12-11T06:34:07.203Z,0.20
2022-12-11T06:36:34.745Z,0.30
2022-12-11T06:39:01.918Z,0.30
2022-12-11T06:41:29.016Z,0.30
2022-12-11T06:43:56.065Z,0.20
2022-12-11T06:46:23.134Z,0.20
2022-12-11T06:48:50.480Z,0.20
2022-12-11T06:51:23.135Z,0.20
2022-12-11T06:53:55.542Z,0.30
2022-12-11T06:56:24.185Z,0.20
2022-12-11T06:58:51.996Z,0.20
2022-12-11T07:01:26.082Z,0.30
2022-12-11T07:03:58.635Z,0.30
2022-12-11T07:06:28.390Z,0.20
2022-12-11T07:08:56.545Z,0.20
2022-12-11T07:11:24.141Z,0.20
2022-12-11T07:13:51.251Z,0.20
2022-12-11T07:16:19.141Z,0.20
2022-12-11T07:18:51.322Z,0.30
2022-12-11T07:21:19.741Z,0.30
2022-12-11T07:23:47.918Z,0.30
2022-12-11T07:26:18.851Z,0.30
2022-12-11T07:28:46.326Z,0.30
2022-12-11T07:31:18.178Z,0.30
2022-12-11T07:33:45.546Z,0.30
2022-12-11T07:36:14.883Z,0.30
2022-12-11T07:38:42.029Z,0.30
2022-12-11T07:41:15.721Z,0.30
2022-12-11T07:43:43.531Z,0.40
2022-12-11T07:46:18.177Z,0.30
2022-12-11T07:48:47.437Z,0.40
2022-12-11T07:51:27.526Z,0.30
2022-12-11T07:53:58.514Z,0.40
2022-12-11T07:56:28.128Z,0.40
2022-12-11T07:58:55.691Z,0.40
2022-12-11T08:01:27.381Z,0.40
2022-12-11T08:03:55.936Z,0.40
2022-12-11T08:06:31.616Z,0.40
2022-12-11T08:09:01.107Z,0.40
2022-12-11T08:11:28.932Z,0.40
2022-12-11T08:13:56.840Z,0.40
2022-12-11T08:16:24.147Z,0.40
2022-12-11T08:18:52.184Z,0.40
2022-12-11T08:21:26.122Z,0.40
2022-12-11T08:23:54.874Z,0.40
2022-12-11T08:26:29.196Z,0.40
2022-12-11T08:28:56.869Z,0.40
2022-12-11T08:31:24.491Z,0.40
2022-12-11T08:33:52.484Z,0.40
2022-12-11T08:36:22.205Z,0.40
2022-12-11T08:38:51.119Z,0.40
2022-12-11T08:41:25.486Z,0.50
2022-12-11T08:43:54.945Z,0.50
2022-12-11T08:46:26.638Z,0.40
2022-12-11T08:48:55.704Z,0.50
2022-12-11T08:51:26.107Z,0.50
2022-12-11T08:53:56.954Z,0.50
2022-12-11T08:56:25.117Z,0.50
2022-12-11T08:58:53.009Z,0.50
2022-12-11T09:01:26.647Z,0.50
2022-12-11T09:03:56.487Z,0.50
2022-12-11T09:06:26.729Z,0.50
2022-12-11T09:08:54.740Z,0.50
2022-12-11T09:11:28.563Z,0.60
2022-12-11T09:13:56.284Z,0.60
2022-12-11T09:16:25.901Z,0.60
2022-12-11T09:18:55.925Z,0.60
2022-12-11T09:21:29.893Z,0.60
2022-12-11T09:24:00.489Z,0.60
2022-12-11T09:26:30.060Z,0.60
2022-12-11T09:28:57.829Z,0.60
2022-12-11T09:31:32.909Z,0.60
2022-12-11T09:34:04.631Z,0.60
2022-12-11T09:36:35.342Z,0.60
2022-12-11T09:39:05.835Z,0.60
2022-12-11T09:42:40.067Z,0.60
2022-12-11T09:45:15.504Z,0.60
2022-12-11T09:47:50.525Z,0.60
2022-12-11T09:50:27.049Z,0.60
2022-12-11T09:53:36.652Z,0.60
2022-12-11T09:56:18.437Z,0.60
2022-12-11T09:59:29.714Z,0.60
2022-12-11T10:02:21.057Z,0.60
2022-12-11T10:05:26.518Z,0.60
2022-12-11T10:08:17.074Z,0.60
2022-12-11T10:10:54.260Z,0.60
2022-12-11T10:13:56.167Z,0.70
2022-12-11T10:16:37.551Z,0.60
2022-12-11T10:19:05.176Z,0.70
2022-12-11T10:21:41.706Z,0.60
2022-12-11T10:24:57.889Z,0.70
2022-12-11T10:27:22.724Z,0.70
2022-12-11T10:30:17.986Z,0.70
2022-12-11T10:32:50.950Z,0.70
2022-12-11T10:35:36.939Z,0.70
2022-12-11T10:38:32.706Z,0.70
2022-12-11T10:41:11.662Z,0.70
2022-12-11T10:43:43.315Z,0.80
2022-12-11T10:46:24.683Z,0.80
2022-12-11T10:49:00.757Z,0.80
2022-12-11T10:51:30.881Z,0.80
2022-12-11T10:54:16.885Z,0.80
2022-12-11T10:56:47.287Z,0.80
2022-12-11T10:59:26.213Z,0.80
2022-12-11T11:01:54.060Z,0.80
2022-12-11T11:04:35.284Z,0.80
2022-12-11T11:07:15.533Z,0.80
2022-12-11T11:09:43.311Z,0.80
2022-12-11T11:12:40.275Z,0.80
2022-12-11T11:15:23.203Z,0.80
2022-12-11T11:17:57.395Z,0.80
2022-12-11T11:20:28.373Z,0.80
2022-12-11T11:23:03.058Z,0.80
2022-12-11T11:25:33.081Z,0.80
2022-12-11T11:28:07.399Z,0.80
2022-12-11T11:30:38.638Z,0.80
2022-12-11T11:33:19.203Z,0.80
2022-12-11T11:36:05.495Z,0.90
2022-12-11T11:38:46.696Z,0.90
2022-12-11T11:41:25.653Z,0.90
2022-12-11T11:43:58.411Z,0.90
2022-12-11T11:46:49.628Z,0.90
2022-12-11T11:49:34.324Z,0.90
2022-12-11T11:52:19.656Z,0.90
2022-12-11T11:55:22.144Z,0.90
2022-12-11T11:58:12.679Z,0.80
2022-12-11T12:00:39.973Z,0.90
2022-12-11T12:03:16.923Z,0.90
2022-12-11T12:06:12.047Z,0.90
2022-12-11T12:09:03.227Z,0.90
2022-12-11T12:12:03.114Z,0.90
2022-12-11T12:14:52.635Z,0.90
2022-12-11T12:17:31.527Z,0.90
2022-12-11T12:20:13.743Z,0.90
2022-12-11T12:22:58.646Z,0.90
2022-12-11T12:25:52.210Z,0.90
2022-12-11T12:28:22.193Z,0.90
2022-12-11T12:31:20.302Z,0.90
2022-12-11T12:33:50.072Z,0.80
2022-12-11T12:36:43.290Z,0.80
2022-12-11T12:39:19.398Z,0.90
2022-12-11T12:42:07.962Z,0.90
2022-12-11T12:44:54.185Z,0.90
2022-12-11T12:47:22.486Z,0.90
2022-12-11T12:49:51.348Z,0.90
2022-12-11T12:52:26.547Z,0.90
2022-12-11T12:55:18.851Z,0.90
2022-12-11T12:57:57.557Z,0.90
2022-12-11T13:00:35.244Z,0.90
2022-12-11T13:03:23.314Z,0.90
2022-12-11T13:06:01.888Z,0.90
2022-12-11T13:08:37.829Z,1.00
2022-12-11T13:11:10.591Z,1.00
2022-12-11T13:14:15.299Z,1.00
2022-12-11T13:16:45.467Z,1.00
2022-12-11T13:19:27.639Z,1.00
2022-12-11T13:22:06.386Z,1.00
2022-12-11T13:24:34.483Z,1.00
2022-12-11T13:27:23.277Z,1.00
2022-12-11T13:29:50.780Z,1.00
2022-12-11T13:32:17.921Z,1.00
2022-12-11T13:34:57.581Z,1.00
2022-12-11T13:37:35.833Z,1.00
2022-12-11T13:40:08.994Z,0.90
2022-12-11T13:42:47.651Z,0.90
2022-12-11T13:45:37.859Z,0.90
2022-12-11T13:48:24.363Z,0.90
2022-12-11T13:50:53.018Z,0.90
2022-12-11T13:53:22.057Z,0.90
2022-12-11T13:56:07.008Z,0.80
2022-12-11T13:58:40.760Z,0.80
2022-12-11T14:01:27.613Z,0.80
2022-12-11T14:04:16.058Z,0.90
2022-12-11T14:06:43.565Z,0.80
2022-12-11T14:09:19.493Z,0.90
2022-12-11T14:11:52.154Z,0.80
2022-12-11T14:14:36.120Z,0.80
2022-12-11T14:17:04.297Z,0.80
2022-12-11T14:19:33.807Z,0.80
2022-12-11T14:22:08.727Z,0.70
2022-12-11T14:24:35.945Z,0.70
2022-12-11T14:27:04.746Z,0.70
2022-12-11T14:29:33.721Z,0.70
2022-12-11T14:32:06.824Z,0.70
2022-12-11T14:34:44.455Z,0.70
2022-12-11T14:37:14.694Z,0.70
2022-12-11T14:39:53.007Z,0.70
2022-12-11T14:42:24.623Z,0.70
2022-12-11T14:45:05.910Z,0.80
2022-12-11T14:47:41.419Z,0.80
2022-12-11T14:50:14.134Z,0.80
2022-12-11T14:52:50.726Z,0.80
2022-12-11T14:55:35.176Z,0.80
2022-12-11T14:58:15.033Z,0.70
2022-12-11T15:00:42.421Z,0.80
2022-12-11T15:03:12.639Z,0.80
2022-12-11T15:05:51.343Z,0.80
2022-12-11T15:08:26.268Z,0.80
2022-12-11T15:11:14.459Z,0.70
2022-12-11T15:13:57.950Z,0.70
2022-12-11T15:16:29.485Z,0.70
2022-12-11T15:18:58.765Z,0.70
2022-12-11T15:21:31.629Z,0.70
2022-12-11T15:24:03.129Z,0.70
2022-12-11T15:26:40.154Z,0.70
2022-12-11T15:29:35.172Z,0.70
2022-12-11T15:32:08.491Z,0.70
2022-12-11T15:34:49.385Z,0.70
2022-12-11T15:37:33.449Z,0.70
2022-12-11T15:40:03.055Z,0.70
2022-12-11T15:42:42.359Z,0.70
2022-12-11T15:45:18.169Z,0.60
2022-12-11T15:47:46.586Z,0.60
2022-12-11T15:50:16.899Z,0.60
2022-12-11T15:52:44.811Z,0.70
2022-12-11T15:55:12.840Z,0.60
2022-12-11T15:57:47.524Z,0.70
2022-12-11T16:00:16.579Z,0.60
2022-12-11T16:02:45.071Z,0.60
2022-12-11T16:05:12.655Z,0.60
2022-12-11T16:07:40.077Z,0.60
2022-12-11T16:10:13.469Z,0.60
2022-12-11T16:12:40.589Z,0.60
2022-12-11T16:15:08.435Z,0.60
2022-12-11T16:17:35.679Z,0.60
2022-12-11T16:20:02.890Z,0.60
2022-12-11T16:22:29.893Z,0.60
2022-12-11T16:24:57.184Z,0.60
2022-12-11T16:27:24.391Z,0.60
2022-12-11T16:29:51.911Z,0.60
2022-12-11T16:32:20.450Z,0.70
2022-12-11T16:34:47.643Z,0.60
2022-12-11T16:37:15.244Z,0.70
2022-12-11T16:39:44.802Z,0.60
2022-12-11T16:42:11.942Z,0.60
2022-12-11T16:44:43.878Z,0.60
2022-12-11T16:47:11.505Z,0.60
2022-12-11T16:49:38.569Z,0.60
2022-12-11T16:52:05.751Z,0.60
2022-12-11T16:54:33.032Z,0.60
2022-12-11T16:57:00.776Z,0.60
2022-12-11T16:59:35.164Z,0.60
2022-12-11T17:02:04.080Z,0.60
2022-12-11T17:04:33.167Z,0.60
2022-12-11T17:07:00.434Z,0.60
2022-12-11T17:09:27.586Z,0.60
2022-12-11T17:11:54.880Z,0.60
2022-12-11T17:14:22.093Z,0.60
2022-12-11T17:16:49.208Z,0.60
2022-12-11T17:19:17.633Z,0.60
2022-12-11T17:21:51.154Z,0.60
2022-12-11T17:24:18.654Z,0.60
2022-12-11T17:26:46.190Z,0.50
2022-12-11T17:29:14.154Z,0.50
2022-12-11T17:31:41.377Z,0.50
2022-12-11T17:34:08.620Z,0.50
2022-12-11T17:36:35.982Z,0.50
2022-12-11T17:39:04.050Z,0.50
2022-12-11T17:41:32.275Z,0.50
2022-12-11T17:43:59.790Z,0.50
2022-12-11T17:46:26.899Z,0.50
2022-12-11T17:48:54.076Z,0.60
2022-12-11T17:51:23.917Z,0.50
2022-12-11T17:53:55.670Z,0.50
2022-12-11T17:56:23.950Z,0.50
2022-12-11T17:58:51.467Z,0.50
2022-12-11T18:01:19.433Z,0.60
2022-12-11T18:03:47.064Z,0.50
2022-12-11T18:06:16.319Z,0.60
2022-12-11T18:08:45.553Z,0.50
2022-12-11T18:11:17.143Z,0.50
2022-12-11T18:13:45.997Z,0.50
2022-12-11T18:16:17.437Z,0.50
2022-12-11T18:18:46.383Z,0.50
2022-12-11T18:21:21.508Z,0.50
2022-12-11T18:23:50.499Z,0.50
2022-12-11T18:26:19.460Z,0.50
2022-12-11T18:28:48.293Z,0.50
2022-12-11T18:31:16.494Z,0.50
2022-12-11T18:33:47.787Z,0.50
2022-12-11T18:36:18.363Z,0.50
2022-12-11T18:38:47.858Z,0.50
2022-12-11T18:41:16.792Z,0.50
2022-12-11T18:43:44.020Z,0.50
2022-12-11T18:46:16.305Z,0.50
2022-12-11T18:48:44.833Z,0.50
2022-12-11T18:51:18.514Z,0.40
2022-12-11T18:53:46.114Z,0.50
2022-12-11T18:56:17.492Z,0.50
2022-12-11T18:58:45.529Z,0.50
2022-12-11T19:01:22.812Z,0.50
2022-12-11T19:03:51.314Z,0.50
2022-12-11T19:06:21.644Z,0.40
2022-12-11T19:08:48.887Z,0.40
2022-12-11T19:11:19.924Z,0.40
2022-12-11T19:13:48.446Z,0.40
2022-12-11T19:16:29.866Z,0.40
2022-12-11T19:19:09.977Z,0.40
2022-12-11T19:21:38.646Z,0.50
2022-12-11T19:24:08.141Z,0.40
2022-12-11T19:26:36.261Z,0.40
2022-12-11T19:29:04.324Z,0.40
2022-12-11T19:31:32.926Z,0.40
2022-12-11T19:34:01.171Z,0.40
2022-12-11T19:36:30.765Z,0.40
2022-12-11T19:39:01.976Z,0.40
2022-12-11T19:41:31.111Z,0.40
2022-12-11T19:44:00.879Z,0.40
2022-12-11T19:46:28.936Z,0.40
2022-12-11T19:48:57.978Z,0.40
2022-12-11T19:51:33.520Z,0.40
2022-12-11T19:54:02.867Z,0.40
2022-12-11T19:56:30.185Z,0.40
2022-12-11T19:58:57.868Z,0.40
2022-12-11T20:01:28.809Z,0.40
2022-12-11T20:04:01.161Z,0.40
2022-12-11T20:06:30.594Z,0.40
2022-12-11T20:08:58.374Z,0.40
2022-12-11T20:11:26.326Z,0.40
2022-12-11T20:13:55.504Z,0.40
2022-12-11T20:16:39.492Z,0.40
2022-12-11T20:19:10.665Z,0.40
2022-12-11T20:21:37.822Z,0.40
2022-12-11T20:24:05.305Z,0.40
2022-12-11T20:26:36.916Z,0.40
2022-12-11T20:29:07.399Z,0.40
2022-12-11T20:31:36.701Z,0.40
2022-12-11T20:34:05.148Z,0.40
2022-12-11T20:36:32.724Z,0.40
2022-12-11T20:39:00.390Z,0.40
2022-12-11T20:41:27.920Z,0.40
2022-12-11T20:43:55.346Z,0.40
2022-12-11T20:46:25.449Z,0.40
2022-12-11T20:48:55.135Z,0.40
2022-12-11T20:51:26.035Z,0.40
2022-12-11T20:53:58.522Z,0.40
2022-12-11T20:56:29.846Z,0.40
2022-12-11T20:58:59.081Z,0.40
2022-12-11T21:01:33.508Z,0.40
2022-12-11T21:04:01.398Z,0.40
2022-12-11T21:06:35.103Z,0.40
2022-12-11T21:09:11.466Z,0.40
2022-12-11T21:11:38.964Z,0.40
2022-12-11T21:14:06.877Z,0.40
2022-12-11T21:16:36.774Z,0.40
2022-12-11T21:19:05.987Z,0.40
2022-12-11T21:21:36.930Z,0.40
2022-12-11T21:24:04.544Z,0.40
2022-12-11T21:26:31.732Z,0.40
2022-12-11T21:28:58.791Z,0.40
2022-12-11T21:31:25.926Z,0.40
2022-12-11T21:33:55.959Z,0.40
2022-12-11T21:36:24.124Z,0.40
2022-12-11T21:38:51.371Z,0.40
2022-12-11T21:41:24.049Z,0.40
2022-12-11T21:46:41.606Z,0.40
2022-12-11T21:49:08.876Z,0.30
2022-12-11T21:51:43.968Z,0.30
2022-12-11T21:54:16.838Z,0.40
2022-12-11T21:56:47.214Z,0.30
2022-12-11T21:59:15.056Z,0.30
2022-12-11T22:01:46.223Z,0.30
2022-12-11T22:04:15.463Z,0.40
2022-12-11T22:06:43.402Z,0.40
2022-12-11T22:09:12.441Z,0.30
2022-12-11T22:11:41.419Z,0.40
2022-12-11T22:14:16.644Z,0.40
2022-12-11T22:16:44.413Z,0.40
2022-12-11T22:19:12.254Z,0.40
2022-12-11T22:21:39.991Z,0.40
2022-12-11T22:24:07.664Z,0.40
2022-12-11T22:26:34.771Z,0.40
2022-12-11T22:29:01.964Z,0.40
2022-12-11T22:31:28.975Z,0.40
2022-12-11T22:33:56.096Z,0.30
2022-12-11T22:36:25.525Z,0.40
2022-12-11T22:38:52.959Z,0.40
2022-12-11T22:41:28.395Z,0.40
2022-12-11T22:43:55.807Z,0.40
2022-12-11T22:46:26.868Z,0.40
2022-12-11T22:48:54.957Z,0.40
2022-12-11T22:51:23.068Z,0.30
2022-12-11T22:53:50.588Z,0.40
2022-12-11T22:56:17.780Z,0.40
2022-12-11T22:58:45.012Z,0.40
2022-12-11T23:01:20.136Z,0.40
2022-12-11T23:03:47.818Z,0.40
2022-12-11T23:06:18.844Z,0.40
2022-12-11T23:08:46.409Z,0.30
2022-12-11T23:11:22.807Z,0.40
2022-12-11T23:13:50.288Z,0.30
2022-12-11T23:16:17.481Z,0.30
2022-12-11T23:18:44.923Z,0.40
2022-12-11T23:21:13.130Z,0.40
2022-12-11T23:23:41.259Z,0.40
2022-12-11T23:26:12.000Z,0.30
2022-12-11T23:28:40.037Z,0.30
2022-12-11T23:31:07.962Z,0.30
2022-12-11T23:33:35.137Z,0.30
2022-12-11T23:36:02.248Z,0.30
2022-12-11T23:38:29.346Z,0.30
2022-12-11T23:40:59.409Z,0.30
2022-12-11T23:43:26.752Z,0.30
2022-12-11T23:45:53.781Z,0.30
2022-12-11T23:48:21.059Z,0.30
2022-12-11T23:50:48.473Z,0.30
2022-12-11T23:53:15.823Z,0.30
2022-12-11T23:55:45.090Z,0.30
2022-12-11T23:58:12.849Z,0.30
